Content
SEND FEEDBACK

Daily
Averages
Monthly
Summary
United States of America

ASHEVILLE, NORTH CAROLINA


Home > North America > United States > North Carolina
Elevation: 682 meters     Latitude: 35 36N     Longitude: 082 32W

WEATHER
 
SELECT A DAY
Number of Records: 225,295;   Date Range: 1/1/95 - 7/7/14
 
SHARE

PRINT THIS DATA

[ ← Previous Day ]
WEATHER ALMANAC - 8 OCTOBER, 2013
[ Next Day → ]
[ °F ]   °C
We're sorry. There is no daily almanac available for Asheville, North Carolina on 8 October, 2013.
WEATHER BY HOUR - 8 OCTOBER, 2013
[ °F ]   °C
Local TimeTemperatureDewpointHumidityBarometerVisibilityWind DirectionWind SpeedGust SpeedPrecipitationEventsConditions
1:54 AM11.7 °C8.3 °C80 %1017.6 hPa16.1 kmNorth (360°)13 km/hClear
2:54 AM10.6 °C8.3 °C86 %1017.6 hPa16.1 kmNorth (350°)11.1 km/hScattered Clouds
3:54 AM10.6 °C8.3 °C86 %1017.3 hPa16.1 kmNorth (10°)14.8 km/hClear
4:54 AM10 °C7.8 °C86 %1017.6 hPa16.1 kmNorth (360°)13 km/hClear
5:54 AM10 °C7.8 °C86 %1018.3 hPa16.1 kmNorth (360°)11.1 km/hClear
6:54 AM9.4 °C7.2 °C86 %1019.6 hPa16.1 kmNorth (10°)11.1 km/hClear
7:54 AM9.4 °C7.2 °C86 %1020.7 hPa16.1 kmNNE (20°)5.6 km/hScattered Clouds
8:54 AM11.1 °C8.3 °C83 %1021.3 hPa16.1 kmCalmScattered Clouds
9:54 AM11.7 °C8.3 °C80 %1022 hPa16.1 kmCalmClear
10:54 AM13.9 °C7.2 °C64 %1021.7 hPa16.1 kmCalmClear
11:54 AM15.6 °C5.6 °C51 %1022 hPa16.1 kmNNE (30°)5.6 km/hClear
12:54 PM16.7 °C6.7 °C52 %1021.7 hPa16.1 kmNorth (360°)5.6 km/hClear
1:54 PM17.8 °C7.2 °C50 %1020.7 hPa16.1 kmCalmClear
2:54 PM17.2 °C7.8 °C54 %1020.3 hPa16.1 kmCalmClear
3:54 PM18.3 °C8.3 °C52 %1020.3 hPa16.1 kmCalmClear
4:54 PM18.9 °C8.3 °C50 %1020.7 hPa16.1 kmCalmClear
5:54 PM18.3 °C8.3 °C52 %1021 hPa16.1 kmEast (100°)7.4 km/hClear
6:54 PM16.1 °C8.9 °C62 %1021.3 hPa16.1 kmCalmClear
7:54 PM13.3 °C10 °C80 %1022 hPa16.1 kmCalmClear
8:54 PM12.2 °C10.6 °C90 %1022.7 hPa16.1 kmCalmMostly Cloudy
9:04 PM13 °C11 °C88 %1023.7 hPa16.1 kmCalmOvercast
9:25 PM13 °C11 °C88 %1024 hPa16.1 kmCalmOvercast
9:54 PM12.8 °C10.6 °C86 %1023.4 hPa16.1 kmCalmOvercast
10:54 PM12.8 °C10.6 °C86 %1023.4 hPa16.1 kmCalm
11:54 PM11.1 °C9.4 °C89 %1023 hPa16.1 kmNNW (330°)5.6 km/h
Hourly data recorded from KAVL, located 0 kilometers away from Asheville, North Carolina







STORIES FROM OUR PARTNERS